createdAt,value
2023-03-20T00:00:08.108Z,1.17
2023-03-20T00:02:19.543Z,1.58
2023-03-20T00:04:21.235Z,2.15
2023-03-20T00:06:28.896Z,1.40
2023-03-20T00:08:32.110Z,4.22
2023-03-20T00:10:42.182Z,1.30
2023-03-20T00:12:44.568Z,2.00
2023-03-20T00:14:46.284Z,3.55
2023-03-20T00:16:49.290Z,1.23
2023-03-20T00:18:51.069Z,2.47
2023-03-20T00:20:53.697Z,3.35
2023-03-20T00:22:55.989Z,6.53
2023-03-20T00:24:57.669Z,4.38
2023-03-20T00:26:59.272Z,3.10
2023-03-20T00:29:03.953Z,3.38
2023-03-20T00:31:13.612Z,2.40
2023-03-20T00:33:15.312Z,1.38
2023-03-20T00:35:29.328Z,1.40
2023-03-20T00:37:30.937Z,2.22
2023-03-20T00:39:32.743Z,2.22
2023-03-20T00:41:49.161Z,3.85
2023-03-20T00:43:56.939Z,3.38
2023-03-20T00:45:58.618Z,2.20
2023-03-20T00:48:00.584Z,2.25
2023-03-20T00:50:03.003Z,1.50
2023-03-20T00:52:06.155Z,1.83
2023-03-20T00:54:14.260Z,3.97
2023-03-20T00:56:35.082Z,3.13
2023-03-20T00:58:36.863Z,1.67
2023-03-20T01:00:45.905Z,1.38
2023-03-20T01:02:47.902Z,3.38
2023-03-20T01:04:49.638Z,1.20
2023-03-20T01:06:52.498Z,3.08
2023-03-20T01:08:57.602Z,2.95
2023-03-20T01:10:59.440Z,3.05
2023-03-20T01:13:02.180Z,2.00
2023-03-20T01:15:04.311Z,3.30
2023-03-20T01:17:06.480Z,1.67
2023-03-20T01:19:12.390Z,2.05
2023-03-20T01:21:14.096Z,1.20
2023-03-20T01:23:16.505Z,1.17
2023-03-20T01:25:18.385Z,4.65
2023-03-20T01:27:20.929Z,1.58
2023-03-20T01:29:25.778Z,1.67
2023-03-20T01:31:27.514Z,1.08
2023-03-20T01:33:30.814Z,2.55
2023-03-20T01:35:32.466Z,3.40
2023-03-20T01:37:34.576Z,1.30
2023-03-20T01:39:37.315Z,1.45
2023-03-20T01:41:40.591Z,3.17
2023-03-20T01:43:43.187Z,2.90
2023-03-20T01:45:56.570Z,2.08
2023-03-20T01:47:58.965Z,1.88
2023-03-20T01:50:22.774Z,1.90
2023-03-20T01:52:24.446Z,1.30
2023-03-20T01:54:35.182Z,1.45
2023-03-20T01:56:47.886Z,2.25
2023-03-20T01:58:59.950Z,2.40
2023-03-20T02:01:01.979Z,1.85
2023-03-20T02:03:06.223Z,1.27
2023-03-20T02:05:11.492Z,3.60
2023-03-20T02:07:17.656Z,2.15
2023-03-20T02:09:19.448Z,5.50
2023-03-20T02:11:24.067Z,2.63
2023-03-20T02:13:29.051Z,1.90
2023-03-20T02:15:31.594Z,1.00
2023-03-20T02:17:33.388Z,3.05
2023-03-20T02:19:44.003Z,1.45
2023-03-20T02:21:51.284Z,1.15
2023-03-20T02:24:11.237Z,1.27
2023-03-20T02:26:38.812Z,1.15
2023-03-20T02:28:56.192Z,2.90
2023-03-20T02:31:10.249Z,1.20
2023-03-20T02:33:32.552Z,1.10
2023-03-20T02:35:45.781Z,1.20
2023-03-20T02:37:57.898Z,1.80
2023-03-20T02:40:12.494Z,1.02
2023-03-20T02:42:14.260Z,1.38
2023-03-20T02:45:02.465Z,1.63
2023-03-20T02:47:28.921Z,3.13
2023-03-20T02:49:38.962Z,1.00
2023-03-20T02:51:42.481Z,3.47
2023-03-20T02:53:55.358Z,1.17
2023-03-20T02:56:11.559Z,1.15
2023-03-20T02:58:32.109Z,1.42
2023-03-20T03:00:40.236Z,1.00
2023-03-20T03:02:48.685Z,2.08
2023-03-20T03:04:54.866Z,0.90
2023-03-20T03:06:59.321Z,0.95
2023-03-20T03:09:06.667Z,1.10
2023-03-20T03:11:10.273Z,1.02
2023-03-20T03:13:17.052Z,4.13
2023-03-20T03:15:42.025Z,2.60
2023-03-20T03:17:47.460Z,0.85
2023-03-20T03:19:58.995Z,0.93
2023-03-20T03:22:00.716Z,0.90
2023-03-20T03:24:03.068Z,1.48
2023-03-20T03:26:06.924Z,0.70
2023-03-20T03:28:19.707Z,0.95
2023-03-20T03:30:32.027Z,0.73
2023-03-20T03:32:38.013Z,2.55
2023-03-20T03:34:39.954Z,0.90
2023-03-20T03:36:47.654Z,0.95
2023-03-20T03:39:16.600Z,4.97
2023-03-20T03:41:34.433Z,1.10
2023-03-20T03:43:45.566Z,1.17
2023-03-20T03:48:19.579Z,1.75
2023-03-20T03:50:36.239Z,0.88
2023-03-20T03:52:40.134Z,0.75
2023-03-20T03:54:46.446Z,0.90
2023-03-20T03:56:50.336Z,0.75
2023-03-20T03:58:57.758Z,0.70
2023-03-20T04:01:01.459Z,0.85
2023-03-20T04:03:07.443Z,1.10
2023-03-20T04:05:10.637Z,0.80
2023-03-20T04:07:14.553Z,0.75
2023-03-20T04:09:16.242Z,4.57
2023-03-20T04:11:21.532Z,0.90
2023-03-20T04:13:23.202Z,0.90
2023-03-20T04:15:27.514Z,1.20
2023-03-20T04:17:29.223Z,1.50
2023-03-20T04:19:31.114Z,1.38
2023-03-20T04:21:32.767Z,1.48
2023-03-20T04:23:34.669Z,2.53
2023-03-20T04:25:36.572Z,5.45
2023-03-20T04:27:38.361Z,0.90
2023-03-20T04:29:40.616Z,0.70
2023-03-20T04:31:42.310Z,1.48
2023-03-20T04:33:44.554Z,1.85
2023-03-20T04:35:46.232Z,3.33
2023-03-20T04:37:47.902Z,0.82
2023-03-20T04:39:49.633Z,0.60
2023-03-20T04:41:51.611Z,2.28
2023-03-20T04:43:53.215Z,1.48
2023-03-20T04:45:55.247Z,1.38
2023-03-20T04:47:57.061Z,0.95
2023-03-20T04:49:58.697Z,5.10
2023-03-20T04:52:00.337Z,1.30
2023-03-20T04:54:02.005Z,1.00
2023-03-20T04:56:03.729Z,5.68
2023-03-20T04:58:05.784Z,1.38
2023-03-20T05:00:08.231Z,2.45
2023-03-20T05:02:14.726Z,5.20
2023-03-20T05:04:16.382Z,9.23
2023-03-20T05:06:18.034Z,4.80
2023-03-20T05:08:19.623Z,4.55
2023-03-20T05:10:21.588Z,3.80
2023-03-20T05:12:23.717Z,2.80
2023-03-20T05:14:25.375Z,6.97
2023-03-20T05:16:27.130Z,2.45
2023-03-20T05:18:28.849Z,3.17
2023-03-20T05:20:30.638Z,4.93
2023-03-20T05:22:32.433Z,4.30
2023-03-20T05:24:34.090Z,2.45
2023-03-20T05:26:35.907Z,2.35
2023-03-20T05:28:38.016Z,1.10
2023-03-20T05:30:39.798Z,5.63
2023-03-20T05:32:42.110Z,2.95
2023-03-20T05:34:43.778Z,2.00
2023-03-20T05:36:45.514Z,4.72
2023-03-20T05:38:47.187Z,3.47
2023-03-20T05:40:49.650Z,2.15
2023-03-20T05:42:52.678Z,2.58
2023-03-20T05:44:54.309Z,3.67
2023-03-20T05:46:55.902Z,2.15
2023-03-20T05:48:57.570Z,4.07
2023-03-20T05:50:59.221Z,4.03
2023-03-20T05:53:00.900Z,3.25
2023-03-20T05:55:02.652Z,4.43
2023-03-20T05:57:04.352Z,5.20
2023-03-20T05:59:06.479Z,4.70
2023-03-20T06:01:08.255Z,5.85
2023-03-20T06:03:10.050Z,2.65
2023-03-20T06:05:11.699Z,3.85
2023-03-20T06:07:13.733Z,8.50
2023-03-20T06:09:15.658Z,6.38
2023-03-20T06:11:17.754Z,5.68
2023-03-20T06:13:19.594Z,4.38
2023-03-20T06:15:21.771Z,4.63
2023-03-20T06:17:23.474Z,6.32
2023-03-20T06:19:25.100Z,8.55
2023-03-20T06:21:26.726Z,7.22
2023-03-20T06:23:28.529Z,8.05
2023-03-20T06:25:30.430Z,6.63
2023-03-20T06:27:33.177Z,6.18
2023-03-20T06:29:34.826Z,13.18
2023-03-20T06:31:36.552Z,9.38
2023-03-20T06:33:38.269Z,14.80
2023-03-20T06:35:40.132Z,5.80
2023-03-20T06:37:41.980Z,12.90
2023-03-20T06:39:43.770Z,7.85
2023-03-20T06:41:45.457Z,9.50
2023-03-20T06:43:47.097Z,8.40
2023-03-20T06:45:48.833Z,14.48
2023-03-20T06:47:50.501Z,11.93
2023-03-20T06:49:52.149Z,6.13
2023-03-20T06:51:53.863Z,12.65
2023-03-20T06:53:55.644Z,5.18
2023-03-20T06:55:57.357Z,9.65
2023-03-20T06:57:59.058Z,5.85
2023-03-20T07:00:00.690Z,3.20
2023-03-20T07:02:03.314Z,2.40
2023-03-20T07:04:05.967Z,3.70
2023-03-20T07:06:08.290Z,6.53
2023-03-20T07:08:10.001Z,1.52
2023-03-20T07:10:12.411Z,2.35
2023-03-20T07:12:15.835Z,4.88
2023-03-20T07:14:17.463Z,5.57
2023-03-20T07:16:19.219Z,4.35
2023-03-20T07:18:21.219Z,3.90
2023-03-20T07:20:23.114Z,2.92
2023-03-20T07:22:26.778Z,3.83
2023-03-20T07:24:28.427Z,7.57
2023-03-20T07:26:30.211Z,2.40
2023-03-20T07:28:31.869Z,2.60
2023-03-20T07:30:33.560Z,5.47
2023-03-20T07:32:37.642Z,3.85
2023-03-20T07:34:39.564Z,3.17
2023-03-20T07:36:41.945Z,1.13
2023-03-20T07:38:43.684Z,1.90
2023-03-20T07:40:45.281Z,0.70
2023-03-20T07:42:47.766Z,2.58
2023-03-20T07:44:49.444Z,3.67
2023-03-20T07:46:51.231Z,3.53
2023-03-20T07:48:52.843Z,4.38
2023-03-20T07:50:54.545Z,0.57
2023-03-20T07:52:56.131Z,4.20
2023-03-20T07:54:57.794Z,1.27
2023-03-20T07:56:59.473Z,0.70
2023-03-20T07:59:01.175Z,2.28
2023-03-20T08:01:03.590Z,2.40
2023-03-20T08:03:05.681Z,1.05
2023-03-20T08:05:07.815Z,2.67
2023-03-20T08:07:10.198Z,1.63
2023-03-20T08:09:11.809Z,1.35
2023-03-20T08:11:13.745Z,0.85
2023-03-20T08:13:15.743Z,1.00
2023-03-20T08:15:17.458Z,0.90
2023-03-20T08:17:21.767Z,2.95
2023-03-20T08:19:23.898Z,2.15
2023-03-20T08:21:25.558Z,1.23
2023-03-20T08:23:27.372Z,1.60
2023-03-20T08:25:33.616Z,0.77
2023-03-20T08:27:36.637Z,1.05
2023-03-20T08:29:38.297Z,2.10
2023-03-20T08:31:40.339Z,2.05
2023-03-20T08:33:41.955Z,1.08
2023-03-20T08:35:43.784Z,0.70
2023-03-20T08:37:45.579Z,1.13
2023-03-20T08:39:48.026Z,2.63
2023-03-20T08:41:49.725Z,2.05
2023-03-20T08:43:51.375Z,0.70
2023-03-20T08:45:54.039Z,1.48
2023-03-20T08:47:55.738Z,1.33
2023-03-20T08:49:57.449Z,2.78
2023-03-20T08:52:00.394Z,0.75
2023-03-20T08:54:02.063Z,0.77
2023-03-20T08:56:03.815Z,1.33
2023-03-20T08:58:05.771Z,1.10
2023-03-20T09:00:09.199Z,1.63
2023-03-20T09:02:12.244Z,1.42
2023-03-20T09:04:14.506Z,0.77
2023-03-20T09:06:16.572Z,2.00
2023-03-20T09:08:18.376Z,1.55
2023-03-20T09:10:20.206Z,1.20
2023-03-20T09:12:21.998Z,1.05
2023-03-20T09:14:24.180Z,1.13
2023-03-20T09:16:26.947Z,1.33
2023-03-20T09:18:28.668Z,0.70
2023-03-20T09:20:30.378Z,0.68
2023-03-20T09:22:32.292Z,1.73
2023-03-20T09:24:34.003Z,1.35
2023-03-20T09:26:36.047Z,0.82
2023-03-20T09:28:37.672Z,0.60
2023-03-20T09:30:40.562Z,0.98
2023-03-20T09:32:42.215Z,0.50
2023-03-20T09:34:43.890Z,1.02
2023-03-20T09:36:45.578Z,0.60
2023-03-20T09:38:48.165Z,1.05
2023-03-20T09:41:03.724Z,0.60
2023-03-20T09:43:35.802Z,0.45
2023-03-20T09:45:49.178Z,0.47
2023-03-20T09:48:01.727Z,1.42
2023-03-20T09:50:22.312Z,1.25
2023-03-20T09:52:36.062Z,0.82
2023-03-20T09:54:53.771Z,1.95
2023-03-20T09:56:57.831Z,0.50
2023-03-20T09:59:04.989Z,0.43
2023-03-20T10:01:13.358Z,2.95
2023-03-20T10:03:22.313Z,0.60
2023-03-20T10:05:35.180Z,0.80
2023-03-20T10:07:36.914Z,0.52
2023-03-20T10:09:38.599Z,0.80
2023-03-20T10:12:12.498Z,0.50
2023-03-20T10:14:53.494Z,0.75
2023-03-20T10:17:09.456Z,0.93
2023-03-20T10:19:33.550Z,0.77
2023-03-20T10:21:51.131Z,0.68
2023-03-20T10:24:00.161Z,1.35
2023-03-20T10:26:13.425Z,0.50
2023-03-20T10:28:29.489Z,1.13
2023-03-20T10:30:51.969Z,0.52
2023-03-20T10:33:04.585Z,0.43
2023-03-20T10:35:34.019Z,1.10
2023-03-20T10:38:24.975Z,0.50
2023-03-20T10:40:30.302Z,0.88
2023-03-20T10:42:39.666Z,0.50
2023-03-20T10:44:48.769Z,3.92
2023-03-20T10:46:53.511Z,0.60
2023-03-20T10:49:01.691Z,1.50
2023-03-20T10:51:04.348Z,0.55
2023-03-20T10:53:07.870Z,0.43
2023-03-20T10:55:28.120Z,0.40
2023-03-20T10:57:33.626Z,0.43
2023-03-20T10:59:40.819Z,0.50
2023-03-20T11:01:42.469Z,0.70
2023-03-20T11:03:44.134Z,0.98
2023-03-20T11:06:02.427Z,0.40
2023-03-20T11:08:14.781Z,0.60
2023-03-20T11:10:17.168Z,0.47
2023-03-20T11:12:20.690Z,0.57
2023-03-20T11:14:24.625Z,0.50
2023-03-20T11:16:32.878Z,0.32
2023-03-20T11:18:34.938Z,0.60
2023-03-20T11:20:50.472Z,1.00
2023-03-20T11:23:08.340Z,0.47
2023-03-20T11:25:38.445Z,0.45
2023-03-20T11:27:40.050Z,0.40
2023-03-20T11:29:45.534Z,0.52
2023-03-20T11:31:47.721Z,0.50
2023-03-20T11:34:07.685Z,0.82
2023-03-20T11:36:22.278Z,0.52
2023-03-20T11:38:24.585Z,0.50
2023-03-20T11:40:31.861Z,0.60
2023-03-20T11:42:34.061Z,0.50
2023-03-20T11:44:36.838Z,0.40
2023-03-20T11:46:38.648Z,0.30
2023-03-20T11:48:42.966Z,0.50
2023-03-20T11:50:49.171Z,0.32
2023-03-20T11:52:50.818Z,0.47
2023-03-20T11:54:58.621Z,0.40
2023-03-20T11:57:01.265Z,0.50
2023-03-20T11:59:09.067Z,0.85
2023-03-20T12:01:12.715Z,0.70
2023-03-20T12:03:44.904Z,0.50
2023-03-20T12:05:46.602Z,0.45
2023-03-20T12:07:52.149Z,0.60
2023-03-20T12:09:59.482Z,0.50
2023-03-20T12:12:19.610Z,1.48
2023-03-20T12:14:53.637Z,1.05
2023-03-20T12:17:19.273Z,0.70
2023-03-20T12:19:25.846Z,0.70
2023-03-20T12:21:39.015Z,0.70
2023-03-20T12:24:07.901Z,0.65
2023-03-20T12:26:12.657Z,0.40
2023-03-20T12:28:50.129Z,0.70
2023-03-20T12:31:28.847Z,1.98
2023-03-20T12:33:39.616Z,1.40
2023-03-20T12:35:47.217Z,0.60
2023-03-20T12:37:49.118Z,0.68
2023-03-20T12:39:56.940Z,0.70
2023-03-20T12:42:16.985Z,0.77
2023-03-20T12:44:18.604Z,0.75
2023-03-20T12:46:54.151Z,0.88
2023-03-20T12:49:16.978Z,0.70
2023-03-20T12:51:21.419Z,0.63
2023-03-20T12:53:41.624Z,0.50
2023-03-20T12:55:55.146Z,0.57
2023-03-20T12:58:02.146Z,0.70
2023-03-20T13:00:20.121Z,0.70
2023-03-20T13:02:40.961Z,0.73
2023-03-20T13:05:13.609Z,0.80
2023-03-20T13:07:19.954Z,0.80
2023-03-20T13:09:32.677Z,0.50
2023-03-20T13:11:43.416Z,0.65
2023-03-20T13:14:09.831Z,0.55
2023-03-20T13:16:28.834Z,0.90
2023-03-20T13:18:43.533Z,1.13
2023-03-20T13:20:52.546Z,0.60
2023-03-20T13:23:10.973Z,0.60
2023-03-20T13:25:26.213Z,0.70
2023-03-20T13:27:49.638Z,1.20
2023-03-20T13:30:17.957Z,1.23
2023-03-20T13:32:58.437Z,0.60
2023-03-20T13:35:18.647Z,0.63
2023-03-20T13:37:33.253Z,1.02
2023-03-20T13:39:46.538Z,0.73
2023-03-20T13:41:50.338Z,0.60
2023-03-20T13:44:03.680Z,0.70
2023-03-20T13:46:12.577Z,0.60
2023-03-20T13:48:34.373Z,0.63
2023-03-20T13:50:40.576Z,0.70
2023-03-20T13:53:06.541Z,0.60
2023-03-20T13:55:18.266Z,0.70
2023-03-20T13:57:44.635Z,0.60
2023-03-20T13:59:49.068Z,2.67
2023-03-20T14:02:05.057Z,1.00
2023-03-20T14:04:14.170Z,0.63
2023-03-20T14:06:30.618Z,0.93
2023-03-20T14:08:35.520Z,0.82
2023-03-20T14:10:38.284Z,0.82
2023-03-20T14:12:40.350Z,0.85
2023-03-20T14:14:55.696Z,0.93
2023-03-20T14:17:19.937Z,0.70
2023-03-20T14:19:24.250Z,0.77
2023-03-20T14:21:26.085Z,0.70
2023-03-20T14:23:40.007Z,0.98
2023-03-20T14:25:43.594Z,0.73
2023-03-20T14:28:00.815Z,2.35
2023-03-20T14:30:31.200Z,0.60
2023-03-20T14:32:35.190Z,1.10
2023-03-20T14:34:48.443Z,0.70
2023-03-20T14:37:00.838Z,0.70
2023-03-20T14:39:33.725Z,1.00
2023-03-20T14:41:41.343Z,0.70
2023-03-20T14:43:58.779Z,0.73
2023-03-20T14:46:08.434Z,0.60
2023-03-20T14:48:31.959Z,0.60
2023-03-20T14:50:51.277Z,0.90
2023-03-20T14:52:59.014Z,0.70
2023-03-20T14:55:22.239Z,0.70
2023-03-20T14:57:48.806Z,0.60
2023-03-20T14:59:55.692Z,1.65
2023-03-20T15:02:01.602Z,0.60
2023-03-20T15:04:08.434Z,1.13
2023-03-20T15:06:10.672Z,0.85
2023-03-20T15:08:24.103Z,0.80
2023-03-20T15:10:26.513Z,0.65
2023-03-20T15:12:34.381Z,0.80
2023-03-20T15:14:58.978Z,0.70
2023-03-20T15:17:02.864Z,0.60
2023-03-20T15:19:16.934Z,0.68
2023-03-20T15:21:34.638Z,0.70
2023-03-20T15:23:36.295Z,0.70
2023-03-20T15:25:46.559Z,0.77
2023-03-20T15:27:49.560Z,0.70
2023-03-20T15:29:54.202Z,0.77
2023-03-20T15:32:12.967Z,1.20
2023-03-20T15:34:21.105Z,0.60
2023-03-20T15:36:28.893Z,1.20
2023-03-20T15:38:34.049Z,1.50
2023-03-20T15:40:50.121Z,0.50
2023-03-20T15:42:57.210Z,0.68
2023-03-20T15:44:58.951Z,0.60
2023-03-20T15:47:07.753Z,0.80
2023-03-20T15:49:17.816Z,0.80
2023-03-20T15:51:23.172Z,0.63
2023-03-20T15:53:47.453Z,0.55
2023-03-20T15:56:16.913Z,0.80
2023-03-20T15:58:20.053Z,1.02
2023-03-20T16:00:39.819Z,0.90
2023-03-20T16:02:41.841Z,0.60
2023-03-20T16:04:51.108Z,0.68
2023-03-20T16:06:58.997Z,0.70
2023-03-20T16:09:07.342Z,0.77
2023-03-20T16:11:17.460Z,0.60
2023-03-20T16:13:19.412Z,1.63
2023-03-20T16:15:24.916Z,0.93
2023-03-20T16:17:27.037Z,0.70
2023-03-20T16:19:29.369Z,0.80
2023-03-20T16:21:35.581Z,0.77
2023-03-20T16:23:46.629Z,0.60
2023-03-20T16:27:51.660Z,0.77
2023-03-20T16:29:54.900Z,0.80
2023-03-20T16:32:26.746Z,0.65
2023-03-20T16:34:36.145Z,0.60
2023-03-20T16:36:38.915Z,0.60
2023-03-20T16:38:53.486Z,0.70
2023-03-20T16:40:58.606Z,0.50
2023-03-20T16:43:17.091Z,0.55
2023-03-20T16:45:30.232Z,0.77
2023-03-20T16:47:38.373Z,0.80
2023-03-20T16:49:51.027Z,2.95
2023-03-20T16:51:59.522Z,0.85
2023-03-20T16:54:01.555Z,3.55
2023-03-20T16:56:05.139Z,8.75
2023-03-20T16:58:08.114Z,5.63
2023-03-20T17:00:25.391Z,5.18
2023-03-20T17:02:36.169Z,3.35
2023-03-20T17:04:40.520Z,3.38
2023-03-20T17:07:06.105Z,7.15
2023-03-20T17:09:18.401Z,3.33
2023-03-20T17:11:32.902Z,7.28
2023-03-20T17:13:34.573Z,7.70
2023-03-20T17:15:36.335Z,2.13
2023-03-20T17:17:38.073Z,4.53
2023-03-20T17:19:39.719Z,6.10
2023-03-20T17:21:41.620Z,2.70
2023-03-20T17:23:43.400Z,4.68
2023-03-20T17:25:45.309Z,9.02
2023-03-20T17:27:47.495Z,16.88
2023-03-20T17:29:49.806Z,8.38
2023-03-20T17:31:51.589Z,8.68
2023-03-20T17:33:53.562Z,2.05
2023-03-20T17:35:57.440Z,3.03
2023-03-20T17:37:59.636Z,6.50
2023-03-20T17:40:01.480Z,4.13
2023-03-20T17:42:03.562Z,2.63
2023-03-20T17:44:05.658Z,13.80
2023-03-20T17:46:07.469Z,7.05
2023-03-20T17:48:20.971Z,12.65
2023-03-20T17:50:25.423Z,6.90
2023-03-20T17:52:28.713Z,16.95
2023-03-20T17:54:30.342Z,24.70
2023-03-20T17:56:32.757Z,16.85
2023-03-20T17:58:34.563Z,15.68
2023-03-20T18:00:36.786Z,31.58
2023-03-20T18:02:38.571Z,17.83
2023-03-20T18:04:40.258Z,11.48
2023-03-20T18:06:42.077Z,9.73
2023-03-20T18:08:43.736Z,10.23
2023-03-20T18:10:45.761Z,7.30
2023-03-20T18:12:47.542Z,8.88
2023-03-20T18:14:49.169Z,9.43
2023-03-20T18:16:50.961Z,6.88
2023-03-20T18:18:53.545Z,6.32
2023-03-20T18:20:57.319Z,3.60
2023-03-20T18:22:59.247Z,10.63
2023-03-20T18:25:00.903Z,7.43
2023-03-20T18:27:03.038Z,7.65
2023-03-20T18:29:04.684Z,4.75
2023-03-20T18:31:06.738Z,8.30
2023-03-20T18:33:08.644Z,11.38
2023-03-20T18:35:11.782Z,11.88
2023-03-20T18:37:14.216Z,9.20
2023-03-20T18:39:18.058Z,7.68
2023-03-20T18:41:20.889Z,8.65
2023-03-20T18:43:22.800Z,4.80
2023-03-20T18:45:27.352Z,12.77
2023-03-20T18:47:29.025Z,8.13
2023-03-20T18:49:30.972Z,9.07
2023-03-20T18:51:33.028Z,5.03
2023-03-20T18:53:34.813Z,7.85
2023-03-20T18:55:38.040Z,7.22
2023-03-20T18:57:43.080Z,8.75
2023-03-20T18:59:44.975Z,7.18
2023-03-20T19:01:46.740Z,6.72
2023-03-20T19:03:48.992Z,4.72
2023-03-20T19:05:52.627Z,3.53
2023-03-20T19:07:56.125Z,5.28
2023-03-20T19:09:57.795Z,5.63
2023-03-20T19:11:59.453Z,8.13
2023-03-20T19:14:01.145Z,5.22
2023-03-20T19:16:03.007Z,1.42
2023-03-20T19:18:15.565Z,4.53
2023-03-20T19:20:35.930Z,2.22
2023-03-20T19:22:37.780Z,3.65
2023-03-20T19:24:39.442Z,8.43
2023-03-20T19:26:41.953Z,5.20
2023-03-20T19:28:44.977Z,5.40
2023-03-20T19:30:47.376Z,5.55
2023-03-20T19:32:49.053Z,3.83
2023-03-20T19:37:12.834Z,3.47
2023-03-20T19:39:15.825Z,4.47
2023-03-20T19:41:19.925Z,5.72
2023-03-20T19:43:22.435Z,3.15
2023-03-20T19:45:25.710Z,3.05
2023-03-20T19:47:27.371Z,6.47
2023-03-20T19:49:32.862Z,5.68
2023-03-20T19:51:34.609Z,3.17
2023-03-20T19:53:36.223Z,1.40
2023-03-20T19:55:38.898Z,5.97
2023-03-20T19:57:40.685Z,2.80
2023-03-20T19:59:44.070Z,4.43
2023-03-20T20:01:46.215Z,5.70
2023-03-20T20:03:49.780Z,5.70
2023-03-20T20:05:52.832Z,4.22
2023-03-20T20:08:23.426Z,6.72
2023-03-20T20:10:21.584Z,6.40
2023-03-20T20:12:23.290Z,12.43
2023-03-20T20:14:25.011Z,5.15
2023-03-20T20:16:26.723Z,5.43
2023-03-20T20:18:29.494Z,6.55
2023-03-20T20:20:34.465Z,7.78
2023-03-20T20:22:36.856Z,5.65
2023-03-20T20:24:38.591Z,4.82
2023-03-20T20:26:49.409Z,2.88
2023-03-20T20:28:55.242Z,2.53
2023-03-20T20:30:57.729Z,1.83
2023-03-20T20:33:03.966Z,2.58
2023-03-20T20:35:40.601Z,1.92
2023-03-20T20:39:52.478Z,1.20
2023-03-20T20:41:54.226Z,1.73
2023-03-20T20:44:15.223Z,1.83
2023-03-20T20:46:17.965Z,3.65
2023-03-20T20:48:19.625Z,3.53
2023-03-20T20:50:24.550Z,2.63
2023-03-20T20:52:26.199Z,4.30
2023-03-20T20:54:28.923Z,3.25
2023-03-20T20:56:30.600Z,3.58
2023-03-20T20:58:32.336Z,2.25
2023-03-20T21:00:48.446Z,2.20
2023-03-20T21:02:52.544Z,2.72
2023-03-20T21:04:54.978Z,1.65
2023-03-20T21:07:09.858Z,1.35
2023-03-20T21:09:12.632Z,4.63
2023-03-20T21:11:15.643Z,1.90
2023-03-20T21:13:17.306Z,1.40
2023-03-20T21:15:19.193Z,2.03
2023-03-20T21:17:20.954Z,2.20
2023-03-20T21:19:24.567Z,1.80
2023-03-20T21:21:26.230Z,2.80
2023-03-20T21:23:27.827Z,3.17
2023-03-20T21:25:39.790Z,1.38
2023-03-20T21:27:42.798Z,3.33
2023-03-20T21:29:47.357Z,2.15
2023-03-20T21:31:49.161Z,3.42
2023-03-20T21:33:53.074Z,1.55
2023-03-20T21:35:54.897Z,1.67
2023-03-20T21:40:18.212Z,2.78
2023-03-20T21:42:20.411Z,2.72
2023-03-20T21:45:00.051Z,4.15
2023-03-20T21:56:53.819Z,1.63
2023-03-20T21:59:12.803Z,1.40
2023-03-20T22:03:33.734Z,2.05
2023-03-20T22:13:57.380Z,1.92
2023-03-20T22:18:02.892Z,1.02
2023-03-20T22:20:33.403Z,1.33
2023-03-20T22:27:42.919Z,1.85
2023-03-20T22:32:20.781Z,3.40
2023-03-20T22:37:23.105Z,1.33
2023-03-20T22:39:39.094Z,1.88
2023-03-20T22:44:24.935Z,1.40
2023-03-20T22:46:05.659Z,2.60
2023-03-20T22:48:13.048Z,1.38
2023-03-20T22:50:14.818Z,1.10
2023-03-20T22:52:29.100Z,2.63
2023-03-20T22:54:33.738Z,1.17
2023-03-20T22:56:35.613Z,0.95
2023-03-20T22:58:37.505Z,1.52
2023-03-20T23:00:39.545Z,1.20
2023-03-20T23:02:42.190Z,1.20
2023-03-20T23:04:43.894Z,0.85
2023-03-20T23:06:45.562Z,2.38
2023-03-20T23:08:53.945Z,1.10
2023-03-20T23:10:56.739Z,1.13
2023-03-20T23:12:58.646Z,2.35
2023-03-20T23:15:00.427Z,1.77
2023-03-20T23:17:02.184Z,3.25
2023-03-20T23:19:03.832Z,1.60
2023-03-20T23:21:06.239Z,1.83
2023-03-20T23:23:08.275Z,1.52
2023-03-20T23:25:27.372Z,2.63
2023-03-20T23:27:31.834Z,1.30
2023-03-20T23:29:33.503Z,1.30
2023-03-20T23:31:35.264Z,1.15
2023-03-20T23:33:40.062Z,1.50
2023-03-20T23:35:41.842Z,2.53
2023-03-20T23:37:43.516Z,1.30
2023-03-20T23:39:45.275Z,0.98
2023-03-20T23:42:07.884Z,1.15
2023-03-20T23:44:08.732Z,1.88
2023-03-20T23:46:11.216Z,3.22
2023-03-20T23:48:13.290Z,1.08
2023-03-20T23:50:26.429Z,1.15
2023-03-20T23:52:29.259Z,1.20
2023-03-20T23:54:31.384Z,3.50
2023-03-20T23:56:33.099Z,1.08
2023-03-20T23:58:36.030Z,3.25
